Terminal Aerodrome Forecast
Issued by NWS Bismarck, ND

Home | Current Version | Previous Version | Graphics & Text | Print | Product List | Glossary On
Versions: 1 2 3 4 5 6 7 8 9 10 11 12 13 14 15 16 17 18 19 20 21
000
FTUS43 KBIS 051129
TAFISN
TAF
KISN 051129Z 0512/0612 02012KT P6SM -TSRA SCT035 BKN045CB BKN070
      TEMPO 0512/0515 VRB15G25KT 2SM +TSRA SCT025 BKN035CB OVC050
     FM051500 01015KT P6SM VCTS SCT040CB BKN080
     FM060000 35009KT P6SM SCT030 SCT070
     FM060900 32007KT P6SM BKN035 OVC080=

USA.gov is the U.S. government's official web portal to all federal, state and local government web resources and services.